Jefferson, Oregon
Current Conditions -  °F | °C
As of 10:56 PM on Sunday 21 Dec 2014 (Local Time) from KSLE Reporting Station
Overcast Overcast  
Wind Chill: 51°   Ceiling: 4100
Heat Index: 51°   Visibility: 10mi
Dew Point: 48°   Wind: 8mph
Humidity: 89%   Direction: 160°SSE
Pressure: 30.17"   Gusts: NA
Location:  44.72°N, 123.01°W
Report Text: KSLE 220656Z AUTO 16007KT 10SM FEW025 OVC041 11/09 A3017 RMK AO2 RAE41 SLP217 P0002 T01060089
Loading
Personal Weather Stations






























Interactive Weather Map New forecast layout! Learn more

10-Day Weather Forecast

Advertisements
Track Severe Weather on mobile